sensor_id;sensor_type;location;lat;lon;timestamp;P1;durP1;ratioP1;P2;durP2;ratioP2
44764;SDS011;30484;52.382;5.260;2023-08-20T00:00:40;12.75;;;3.35;;
44764;SDS011;30484;52.382;5.260;2023-08-20T00:03:11;12.93;;;2.95;;
44764;SDS011;30484;52.382;5.260;2023-08-20T00:05:40;11.48;;;3.17;;
44764;SDS011;30484;52.382;5.260;2023-08-20T00:08:10;20.40;;;3.70;;
44764;SDS011;30484;52.382;5.260;2023-08-20T00:10:39;13.23;;;3.15;;
44764;SDS011;30484;52.382;5.260;2023-08-20T00:13:08;11.77;;;3.50;;
44764;SDS011;30484;52.382;5.260;2023-08-20T00:15:37;12.93;;;3.08;;
44764;SDS011;30484;52.382;5.260;2023-08-20T00:18:06;10.77;;;3.13;;
44764;SDS011;30484;52.382;5.260;2023-08-20T00:20:36;10.18;;;2.95;;
44764;SDS011;30484;52.382;5.260;2023-08-20T00:23:07;16.95;;;3.70;;
44764;SDS011;30484;52.382;5.260;2023-08-20T00:25:38;13.40;;;3.13;;
44764;SDS011;30484;52.382;5.260;2023-08-20T00:28:07;11.30;;;3.20;;
44764;SDS011;30484;52.382;5.260;2023-08-20T00:30:36;14.10;;;3.10;;
44764;SDS011;30484;52.382;5.260;2023-08-20T00:33:05;10.45;;;3.25;;
44764;SDS011;30484;52.382;5.260;2023-08-20T00:35:34;12.40;;;3.22;;
44764;SDS011;30484;52.382;5.260;2023-08-20T00:38:02;12.80;;;2.85;;
44764;SDS011;30484;52.382;5.260;2023-08-20T00:40:31;12.27;;;3.25;;
44764;SDS011;30484;52.382;5.260;2023-08-20T00:43:01;12.45;;;3.22;;
44764;SDS011;30484;52.382;5.260;2023-08-20T00:45:30;14.20;;;3.45;;
44764;SDS011;30484;52.382;5.260;2023-08-20T00:47:59;10.98;;;3.50;;
44764;SDS011;30484;52.382;5.260;2023-08-20T00:50:28;12.80;;;3.40;;
44764;SDS011;30484;52.382;5.260;2023-08-20T00:52:57;9.65;;;3.17;;
44764;SDS011;30484;52.382;5.260;2023-08-20T00:55:25;10.88;;;3.15;;
44764;SDS011;30484;52.382;5.260;2023-08-20T00:57:54;12.63;;;3.05;;
44764;SDS011;30484;52.382;5.260;2023-08-20T01:00:25;9.02;;;2.65;;
44764;SDS011;30484;52.382;5.260;2023-08-20T01:02:54;13.70;;;3.22;;
44764;SDS011;30484;52.382;5.260;2023-08-20T01:05:23;17.25;;;3.20;;
44764;SDS011;30484;52.382;5.260;2023-08-20T01:07:56;14.93;;;3.40;;
44764;SDS011;30484;52.382;5.260;2023-08-20T01:10:39;12.02;;;2.92;;
44764;SDS011;30484;52.382;5.260;2023-08-20T01:13:17;10.20;;;3.10;;
44764;SDS011;30484;52.382;5.260;2023-08-20T01:15:47;16.02;;;2.92;;
44764;SDS011;30484;52.382;5.260;2023-08-20T01:18:16;15.35;;;3.08;;
44764;SDS011;30484;52.382;5.260;2023-08-20T01:20:45;19.23;;;3.20;;
44764;SDS011;30484;52.382;5.260;2023-08-20T01:23:32;12.55;;;3.15;;
44764;SDS011;30484;52.382;5.260;2023-08-20T01:26:45;19.90;;;4.15;;
44764;SDS011;30484;52.382;5.260;2023-08-20T01:29:29;9.35;;;2.75;;
44764;SDS011;30484;52.382;5.260;2023-08-20T01:31:59;11.13;;;2.92;;
44764;SDS011;30484;52.382;5.260;2023-08-20T01:34:29;13.02;;;3.10;;
44764;SDS011;30484;52.382;5.260;2023-08-20T01:36:58;13.95;;;3.28;;
44764;SDS011;30484;52.382;5.260;2023-08-20T01:39:26;11.15;;;2.95;;
44764;SDS011;30484;52.382;5.260;2023-08-20T01:41:55;10.57;;;2.83;;
44764;SDS011;30484;52.382;5.260;2023-08-20T01:44:23;16.92;;;3.08;;
44764;SDS011;30484;52.382;5.260;2023-08-20T01:46:54;10.20;;;2.42;;
44764;SDS011;30484;52.382;5.260;2023-08-20T01:49:22;14.75;;;2.88;;
44764;SDS011;30484;52.382;5.260;2023-08-20T01:51:51;12.57;;;2.80;;
44764;SDS011;30484;52.382;5.260;2023-08-20T01:54:19;10.15;;;3.10;;
44764;SDS011;30484;52.382;5.260;2023-08-20T01:56:48;13.35;;;4.00;;
44764;SDS011;30484;52.382;5.260;2023-08-20T01:59:16;10.98;;;2.80;;
44764;SDS011;30484;52.382;5.260;2023-08-20T02:01:45;16.77;;;3.55;;
44764;SDS011;30484;52.382;5.260;2023-08-20T02:04:15;16.55;;;3.58;;
44764;SDS011;30484;52.382;5.260;2023-08-20T02:06:43;11.65;;;3.38;;
44764;SDS011;30484;52.382;5.260;2023-08-20T02:09:12;14.90;;;3.40;;
44764;SDS011;30484;52.382;5.260;2023-08-20T02:11:40;13.52;;;3.20;;
44764;SDS011;30484;52.382;5.260;2023-08-20T02:14:09;13.18;;;3.30;;
44764;SDS011;30484;52.382;5.260;2023-08-20T02:16:38;14.73;;;3.40;;
44764;SDS011;30484;52.382;5.260;2023-08-20T02:19:07;15.65;;;3.28;;
44764;SDS011;30484;52.382;5.260;2023-08-20T02:21:37;14.60;;;3.67;;
44764;SDS011;30484;52.382;5.260;2023-08-20T02:24:06;20.05;;;3.25;;
44764;SDS011;30484;52.382;5.260;2023-08-20T02:26:35;14.55;;;3.22;;
44764;SDS011;30484;52.382;5.260;2023-08-20T02:29:04;19.83;;;3.55;;
44764;SDS011;30484;52.382;5.260;2023-08-20T02:31:32;17.98;;;3.45;;
44764;SDS011;30484;52.382;5.260;2023-08-20T02:34:01;10.73;;;2.58;;
44764;SDS011;30484;52.382;5.260;2023-08-20T02:36:30;17.95;;;3.35;;
44764;SDS011;30484;52.382;5.260;2023-08-20T02:39:00;16.92;;;3.03;;
44764;SDS011;30484;52.382;5.260;2023-08-20T02:41:31;16.45;;;3.17;;
44764;SDS011;30484;52.382;5.260;2023-08-20T02:44:00;17.65;;;2.90;;
44764;SDS011;30484;52.382;5.260;2023-08-20T02:46:28;20.45;;;3.45;;
44764;SDS011;30484;52.382;5.260;2023-08-20T02:48:57;10.85;;;3.10;;
44764;SDS011;30484;52.382;5.260;2023-08-20T02:51:25;16.80;;;3.30;;
44764;SDS011;30484;52.382;5.260;2023-08-20T02:53:54;17.58;;;3.03;;
44764;SDS011;30484;52.382;5.260;2023-08-20T02:56:24;13.45;;;3.22;;
44764;SDS011;30484;52.382;5.260;2023-08-20T02:58:53;12.20;;;2.90;;
44764;SDS011;30484;52.382;5.260;2023-08-20T03:01:22;17.55;;;3.20;;
44764;SDS011;30484;52.382;5.260;2023-08-20T03:03:54;12.02;;;2.75;;
44764;SDS011;30484;52.382;5.260;2023-08-20T03:06:22;13.52;;;3.03;;
44764;SDS011;30484;52.382;5.260;2023-08-20T03:08:52;11.38;;;2.97;;
44764;SDS011;30484;52.382;5.260;2023-08-20T03:11:21;13.95;;;2.83;;
44764;SDS011;30484;52.382;5.260;2023-08-20T03:13:51;17.23;;;3.70;;
44764;SDS011;30484;52.382;5.260;2023-08-20T03:16:20;14.48;;;3.38;;
44764;SDS011;30484;52.382;5.260;2023-08-20T03:18:49;11.70;;;2.90;;
44764;SDS011;30484;52.382;5.260;2023-08-20T03:21:17;15.95;;;3.50;;
44764;SDS011;30484;52.382;5.260;2023-08-20T03:23:46;16.70;;;3.20;;
44764;SDS011;30484;52.382;5.260;2023-08-20T03:26:15;17.15;;;3.05;;
44764;SDS011;30484;52.382;5.260;2023-08-20T03:28:43;18.23;;;3.20;;
44764;SDS011;30484;52.382;5.260;2023-08-20T03:31:13;10.07;;;2.75;;
44764;SDS011;30484;52.382;5.260;2023-08-20T03:33:42;13.55;;;3.05;;
44764;SDS011;30484;52.382;5.260;2023-08-20T03:36:14;14.65;;;3.30;;
44764;SDS011;30484;52.382;5.260;2023-08-20T03:38:42;13.43;;;3.03;;
44764;SDS011;30484;52.382;5.260;2023-08-20T03:41:11;18.00;;;3.30;;
44764;SDS011;30484;52.382;5.260;2023-08-20T03:43:40;13.73;;;2.72;;
44764;SDS011;30484;52.382;5.260;2023-08-20T03:46:08;15.48;;;3.17;;
44764;SDS011;30484;52.382;5.260;2023-08-20T03:48:38;9.93;;;3.00;;
44764;SDS011;30484;52.382;5.260;2023-08-20T03:51:07;13.18;;;2.97;;
44764;SDS011;30484;52.382;5.260;2023-08-20T03:53:36;16.42;;;3.30;;
44764;SDS011;30484;52.382;5.260;2023-08-20T03:56:04;14.52;;;3.28;;
44764;SDS011;30484;52.382;5.260;2023-08-20T03:58:33;9.30;;;2.92;;
44764;SDS011;30484;52.382;5.260;2023-08-20T04:01:02;12.82;;;2.88;;
44764;SDS011;30484;52.382;5.260;2023-08-20T04:03:31;15.32;;;2.95;;
44764;SDS011;30484;52.382;5.260;2023-08-20T04:06:01;15.90;;;3.15;;
44764;SDS011;30484;52.382;5.260;2023-08-20T04:08:30;11.57;;;2.95;;
44764;SDS011;30484;52.382;5.260;2023-08-20T04:10:58;14.13;;;3.25;;
44764;SDS011;30484;52.382;5.260;2023-08-20T04:13:28;15.07;;;3.22;;
44764;SDS011;30484;52.382;5.260;2023-08-20T04:15:57;9.30;;;2.60;;
44764;SDS011;30484;52.382;5.260;2023-08-20T04:18:26;11.93;;;2.92;;
44764;SDS011;30484;52.382;5.260;2023-08-20T04:20:55;20.58;;;3.25;;
44764;SDS011;30484;52.382;5.260;2023-08-20T04:23:25;15.63;;;2.92;;
44764;SDS011;30484;52.382;5.260;2023-08-20T04:25:54;13.95;;;2.80;;
44764;SDS011;30484;52.382;5.260;2023-08-20T04:28:22;16.42;;;3.00;;
44764;SDS011;30484;52.382;5.260;2023-08-20T04:30:51;14.80;;;3.20;;
44764;SDS011;30484;52.382;5.260;2023-08-20T04:33:20;17.38;;;3.35;;
44764;SDS011;30484;52.382;5.260;2023-08-20T04:35:49;11.82;;;3.08;;
44764;SDS011;30484;52.382;5.260;2023-08-20T04:38:18;9.75;;;3.28;;
44764;SDS011;30484;52.382;5.260;2023-08-20T04:40:48;13.18;;;3.10;;
44764;SDS011;30484;52.382;5.260;2023-08-20T04:43:16;18.40;;;3.25;;
44764;SDS011;30484;52.382;5.260;2023-08-20T04:45:45;14.43;;;2.85;;
44764;SDS011;30484;52.382;5.260;2023-08-20T04:48:13;15.43;;;3.30;;
44764;SDS011;30484;52.382;5.260;2023-08-20T04:50:42;13.02;;;3.17;;
44764;SDS011;30484;52.382;5.260;2023-08-20T04:53:10;11.07;;;2.88;;
44764;SDS011;30484;52.382;5.260;2023-08-20T04:55:39;16.55;;;3.80;;
44764;SDS011;30484;52.382;5.260;2023-08-20T04:58:08;10.98;;;3.45;;
44764;SDS011;30484;52.382;5.260;2023-08-20T05:00:37;23.55;;;8.30;;
44764;SDS011;30484;52.382;5.260;2023-08-20T05:03:06;20.65;;;4.88;;
44764;SDS011;30484;52.382;5.260;2023-08-20T05:05:35;15.98;;;5.35;;
44764;SDS011;30484;52.382;5.260;2023-08-20T05:08:05;22.15;;;5.35;;
44764;SDS011;30484;52.382;5.260;2023-08-20T05:10:35;28.02;;;11.85;;
44764;SDS011;30484;52.382;5.260;2023-08-20T05:13:08;16.27;;;4.90;;
44764;SDS011;30484;52.382;5.260;2023-08-20T05:15:37;16.58;;;4.05;;
44764;SDS011;30484;52.382;5.260;2023-08-20T05:18:06;17.05;;;4.20;;
44764;SDS011;30484;52.382;5.260;2023-08-20T05:20:34;17.75;;;3.88;;
44764;SDS011;30484;52.382;5.260;2023-08-20T05:23:03;13.88;;;3.80;;
44764;SDS011;30484;52.382;5.260;2023-08-20T05:25:34;17.27;;;4.80;;
44764;SDS011;30484;52.382;5.260;2023-08-20T05:28:04;12.38;;;4.00;;
44764;SDS011;30484;52.382;5.260;2023-08-20T05:30:34;17.42;;;4.15;;
44764;SDS011;30484;52.382;5.260;2023-08-20T05:33:03;17.73;;;3.95;;
44764;SDS011;30484;52.382;5.260;2023-08-20T05:35:32;22.98;;;5.05;;
44764;SDS011;30484;52.382;5.260;2023-08-20T05:38:00;22.58;;;4.70;;
44764;SDS011;30484;52.382;5.260;2023-08-20T05:40:29;16.25;;;3.72;;
44764;SDS011;30484;52.382;5.260;2023-08-20T05:42:57;20.20;;;4.32;;
44764;SDS011;30484;52.382;5.260;2023-08-20T05:45:26;17.45;;;3.95;;
44764;SDS011;30484;52.382;5.260;2023-08-20T05:47:56;16.02;;;4.13;;
44764;SDS011;30484;52.382;5.260;2023-08-20T05:50:24;20.42;;;4.28;;
44764;SDS011;30484;52.382;5.260;2023-08-20T05:52:53;19.27;;;3.80;;
44764;SDS011;30484;52.382;5.260;2023-08-20T05:55:21;20.02;;;4.30;;
44764;SDS011;30484;52.382;5.260;2023-08-20T05:57:49;13.48;;;3.90;;
44764;SDS011;30484;52.382;5.260;2023-08-20T06:00:17;19.65;;;3.80;;
44764;SDS011;30484;52.382;5.260;2023-08-20T06:02:46;23.70;;;4.10;;
44764;SDS011;30484;52.382;5.260;2023-08-20T06:05:19;14.73;;;3.38;;
44764;SDS011;30484;52.382;5.260;2023-08-20T06:07:47;20.30;;;4.05;;
44764;SDS011;30484;52.382;5.260;2023-08-20T06:10:15;17.10;;;3.35;;
44764;SDS011;30484;52.382;5.260;2023-08-20T06:12:47;16.70;;;2.92;;
44764;SDS011;30484;52.382;5.260;2023-08-20T06:15:27;16.48;;;3.35;;
44764;SDS011;30484;52.382;5.260;2023-08-20T06:17:55;17.92;;;3.30;;
44764;SDS011;30484;52.382;5.260;2023-08-20T06:20:25;12.35;;;3.08;;
44764;SDS011;30484;52.382;5.260;2023-08-20T06:22:54;23.77;;;3.72;;
44764;SDS011;30484;52.382;5.260;2023-08-20T06:25:22;19.27;;;3.28;;
44764;SDS011;30484;52.382;5.260;2023-08-20T06:27:51;21.20;;;3.28;;
44764;SDS011;30484;52.382;5.260;2023-08-20T06:30:19;12.98;;;3.20;;
44764;SDS011;30484;52.382;5.260;2023-08-20T06:32:47;16.67;;;3.20;;
44764;SDS011;30484;52.382;5.260;2023-08-20T06:35:16;20.63;;;3.35;;
44764;SDS011;30484;52.382;5.260;2023-08-20T06:37:46;15.15;;;2.83;;
44764;SDS011;30484;52.382;5.260;2023-08-20T06:40:14;16.17;;;2.97;;
44764;SDS011;30484;52.382;5.260;2023-08-20T06:42:43;14.85;;;2.47;;
44764;SDS011;30484;52.382;5.260;2023-08-20T06:45:12;24.17;;;3.20;;
44764;SDS011;30484;52.382;5.260;2023-08-20T06:47:40;11.40;;;2.60;;
44764;SDS011;30484;52.382;5.260;2023-08-20T06:50:12;16.60;;;2.63;;
44764;SDS011;30484;52.382;5.260;2023-08-20T06:52:40;20.17;;;3.35;;
44764;SDS011;30484;52.382;5.260;2023-08-20T06:55:11;23.02;;;3.33;;
44764;SDS011;30484;52.382;5.260;2023-08-20T06:57:43;13.95;;;2.70;;
44764;SDS011;30484;52.382;5.260;2023-08-20T07:00:11;18.08;;;3.15;;
44764;SDS011;30484;52.382;5.260;2023-08-20T07:02:41;12.20;;;2.45;;
44764;SDS011;30484;52.382;5.260;2023-08-20T07:05:10;15.07;;;2.60;;
44764;SDS011;30484;52.382;5.260;2023-08-20T07:07:41;14.88;;;2.72;;
44764;SDS011;30484;52.382;5.260;2023-08-20T07:10:09;14.18;;;2.92;;
44764;SDS011;30484;52.382;5.260;2023-08-20T07:12:42;16.38;;;3.25;;
44764;SDS011;30484;52.382;5.260;2023-08-20T07:15:11;15.52;;;2.58;;
44764;SDS011;30484;52.382;5.260;2023-08-20T07:17:45;19.13;;;2.92;;
44764;SDS011;30484;52.382;5.260;2023-08-20T07:20:14;16.73;;;3.00;;
44764;SDS011;30484;52.382;5.260;2023-08-20T07:22:45;18.23;;;2.72;;
44764;SDS011;30484;52.382;5.260;2023-08-20T07:25:15;14.75;;;3.00;;
44764;SDS011;30484;52.382;5.260;2023-08-20T07:27:43;11.43;;;2.70;;
44764;SDS011;30484;52.382;5.260;2023-08-20T07:30:15;14.23;;;3.10;;
44764;SDS011;30484;52.382;5.260;2023-08-20T07:32:49;17.33;;;3.17;;
44764;SDS011;30484;52.382;5.260;2023-08-20T07:35:20;16.50;;;2.63;;
44764;SDS011;30484;52.382;5.260;2023-08-20T07:37:57;13.13;;;2.50;;
44764;SDS011;30484;52.382;5.260;2023-08-20T07:40:27;18.13;;;3.20;;
44764;SDS011;30484;52.382;5.260;2023-08-20T07:42:59;16.23;;;2.85;;
44764;SDS011;30484;52.382;5.260;2023-08-20T07:45:29;12.13;;;2.70;;
44764;SDS011;30484;52.382;5.260;2023-08-20T07:48:00;22.40;;;3.03;;
44764;SDS011;30484;52.382;5.260;2023-08-20T07:50:33;19.17;;;3.08;;
44764;SDS011;30484;52.382;5.260;2023-08-20T07:53:04;15.38;;;2.97;;
44764;SDS011;30484;52.382;5.260;2023-08-20T07:55:36;19.77;;;2.85;;
44764;SDS011;30484;52.382;5.260;2023-08-20T07:58:05;15.75;;;3.00;;
44764;SDS011;30484;52.382;5.260;2023-08-20T08:00:34;17.48;;;3.10;;
44764;SDS011;30484;52.382;5.260;2023-08-20T08:03:04;13.98;;;2.80;;
44764;SDS011;30484;52.382;5.260;2023-08-20T08:05:33;12.00;;;2.80;;
44764;SDS011;30484;52.382;5.260;2023-08-20T08:08:01;12.80;;;2.60;;
44764;SDS011;30484;52.382;5.260;2023-08-20T08:10:30;12.27;;;2.33;;
44764;SDS011;30484;52.382;5.260;2023-08-20T08:13:00;14.80;;;2.22;;
44764;SDS011;30484;52.382;5.260;2023-08-20T08:15:28;12.25;;;2.80;;
44764;SDS011;30484;52.382;5.260;2023-08-20T08:18:00;14.23;;;2.67;;
44764;SDS011;30484;52.382;5.260;2023-08-20T08:20:31;16.50;;;2.75;;
44764;SDS011;30484;52.382;5.260;2023-08-20T08:23:00;15.98;;;2.60;;
44764;SDS011;30484;52.382;5.260;2023-08-20T08:25:28;17.88;;;2.92;;
44764;SDS011;30484;52.382;5.260;2023-08-20T08:27:57;12.13;;;2.45;;
44764;SDS011;30484;52.382;5.260;2023-08-20T08:30:28;13.98;;;2.63;;
44764;SDS011;30484;52.382;5.260;2023-08-20T08:32:57;15.18;;;2.55;;
44764;SDS011;30484;52.382;5.260;2023-08-20T08:35:26;10.88;;;2.42;;
44764;SDS011;30484;52.382;5.260;2023-08-20T08:37:55;14.57;;;2.72;;
44764;SDS011;30484;52.382;5.260;2023-08-20T08:40:24;14.63;;;2.70;;
44764;SDS011;30484;52.382;5.260;2023-08-20T08:42:56;13.10;;;2.70;;
44764;SDS011;30484;52.382;5.260;2023-08-20T08:45:26;11.40;;;2.38;;
44764;SDS011;30484;52.382;5.260;2023-08-20T08:47:57;11.38;;;2.38;;
44764;SDS011;30484;52.382;5.260;2023-08-20T08:50:26;10.05;;;2.28;;
44764;SDS011;30484;52.382;5.260;2023-08-20T08:52:54;12.50;;;2.33;;
44764;SDS011;30484;52.382;5.260;2023-08-20T08:55:24;12.65;;;2.10;;
44764;SDS011;30484;52.382;5.260;2023-08-20T08:57:53;11.55;;;2.40;;
44764;SDS011;30484;52.382;5.260;2023-08-20T09:00:21;11.15;;;2.17;;
44764;SDS011;30484;52.382;5.260;2023-08-20T09:02:51;11.00;;;2.20;;
44764;SDS011;30484;52.382;5.260;2023-08-20T09:05:19;11.18;;;2.58;;
44764;SDS011;30484;52.382;5.260;2023-08-20T09:07:49;9.90;;;2.28;;
44764;SDS011;30484;52.382;5.260;2023-08-20T09:10:25;12.10;;;2.05;;
44764;SDS011;30484;52.382;5.260;2023-08-20T09:12:54;13.82;;;2.42;;
44764;SDS011;30484;52.382;5.260;2023-08-20T09:15:31;7.45;;;1.48;;
44764;SDS011;30484;52.382;5.260;2023-08-20T09:18:03;8.63;;;2.20;;
44764;SDS011;30484;52.382;5.260;2023-08-20T09:20:35;11.00;;;2.10;;
44764;SDS011;30484;52.382;5.260;2023-08-20T09:23:10;17.15;;;2.58;;
44764;SDS011;30484;52.382;5.260;2023-08-20T09:25:40;12.40;;;2.22;;
44764;SDS011;30484;52.382;5.260;2023-08-20T09:28:13;11.55;;;2.42;;
44764;SDS011;30484;52.382;5.260;2023-08-20T09:30:54;12.05;;;1.95;;
44764;SDS011;30484;52.382;5.260;2023-08-20T09:33:25;13.13;;;2.28;;
44764;SDS011;30484;52.382;5.260;2023-08-20T09:35:54;11.30;;;2.25;;
44764;SDS011;30484;52.382;5.260;2023-08-20T09:38:23;8.55;;;1.77;;
44764;SDS011;30484;52.382;5.260;2023-08-20T09:40:52;7.45;;;1.80;;
44764;SDS011;30484;52.382;5.260;2023-08-20T09:43:23;12.77;;;2.08;;
44764;SDS011;30484;52.382;5.260;2023-08-20T09:45:55;12.05;;;2.08;;
44764;SDS011;30484;52.382;5.260;2023-08-20T09:48:27;10.57;;;1.70;;
44764;SDS011;30484;52.382;5.260;2023-08-20T09:51:04;12.55;;;1.95;;
44764;SDS011;30484;52.382;5.260;2023-08-20T09:53:39;10.85;;;2.25;;
44764;SDS011;30484;52.382;5.260;2023-08-20T09:56:19;14.85;;;2.40;;
44764;SDS011;30484;52.382;5.260;2023-08-20T09:58:53;12.50;;;2.00;;
44764;SDS011;30484;52.382;5.260;2023-08-20T10:01:22;11.45;;;2.35;;
44764;SDS011;30484;52.382;5.260;2023-08-20T10:03:53;9.15;;;1.80;;
44764;SDS011;30484;52.382;5.260;2023-08-20T10:06:22;9.48;;;2.10;;
44764;SDS011;30484;52.382;5.260;2023-08-20T10:08:52;13.65;;;2.47;;
44764;SDS011;30484;52.382;5.260;2023-08-20T10:11:21;7.88;;;1.95;;
44764;SDS011;30484;52.382;5.260;2023-08-20T10:13:50;12.20;;;2.25;;
44764;SDS011;30484;52.382;5.260;2023-08-20T10:16:18;8.88;;;1.95;;
44764;SDS011;30484;52.382;5.260;2023-08-20T10:18:54;10.57;;;1.75;;
44764;SDS011;30484;52.382;5.260;2023-08-20T10:21:26;8.30;;;1.92;;
44764;SDS011;30484;52.382;5.260;2023-08-20T10:23:54;11.15;;;1.90;;
44764;SDS011;30484;52.382;5.260;2023-08-20T10:26:23;7.60;;;1.60;;
44764;SDS011;30484;52.382;5.260;2023-08-20T10:28:54;6.88;;;1.45;;
44764;SDS011;30484;52.382;5.260;2023-08-20T10:32:06;6.47;;;2.00;;
44764;SDS011;30484;52.382;5.260;2023-08-20T10:34:38;10.07;;;2.00;;
44764;SDS011;30484;52.382;5.260;2023-08-20T10:37:10;9.70;;;1.70;;
44764;SDS011;30484;52.382;5.260;2023-08-20T10:39:40;8.88;;;2.10;;
44764;SDS011;30484;52.382;5.260;2023-08-20T10:42:10;7.18;;;1.90;;
44764;SDS011;30484;52.382;5.260;2023-08-20T10:44:58;7.85;;;1.70;;
44764;SDS011;30484;52.382;5.260;2023-08-20T10:47:36;8.57;;;2.03;;
44764;SDS011;30484;52.382;5.260;2023-08-20T10:50:15;10.13;;;1.70;;
44764;SDS011;30484;52.382;5.260;2023-08-20T10:52:47;7.57;;;1.98;;
44764;SDS011;30484;52.382;5.260;2023-08-20T10:55:22;11.70;;;1.98;;
44764;SDS011;30484;52.382;5.260;2023-08-20T10:57:54;7.50;;;1.67;;
44764;SDS011;30484;52.382;5.260;2023-08-20T11:00:24;7.72;;;1.80;;
44764;SDS011;30484;52.382;5.260;2023-08-20T11:02:54;8.68;;;1.70;;
44764;SDS011;30484;52.382;5.260;2023-08-20T11:05:25;6.68;;;1.83;;
44764;SDS011;30484;52.382;5.260;2023-08-20T11:07:54;8.63;;;1.52;;
44764;SDS011;30484;52.382;5.260;2023-08-20T11:10:22;10.82;;;1.80;;
44764;SDS011;30484;52.382;5.260;2023-08-20T11:12:53;9.50;;;1.67;;
44764;SDS011;30484;52.382;5.260;2023-08-20T11:15:21;10.73;;;1.75;;
44764;SDS011;30484;52.382;5.260;2023-08-20T11:17:50;9.13;;;1.45;;
44764;SDS011;30484;52.382;5.260;2023-08-20T11:20:18;4.90;;;1.38;;
44764;SDS011;30484;52.382;5.260;2023-08-20T11:22:49;7.45;;;1.65;;
44764;SDS011;30484;52.382;5.260;2023-08-20T11:25:18;6.80;;;1.55;;
44764;SDS011;30484;52.382;5.260;2023-08-20T11:27:46;8.70;;;1.88;;
44764;SDS011;30484;52.382;5.260;2023-08-20T11:30:15;10.93;;;2.15;;
44764;SDS011;30484;52.382;5.260;2023-08-20T11:32:43;9.43;;;1.70;;
44764;SDS011;30484;52.382;5.260;2023-08-20T11:35:13;6.53;;;1.60;;
44764;SDS011;30484;52.382;5.260;2023-08-20T11:37:44;7.07;;;1.60;;
44764;SDS011;30484;52.382;5.260;2023-08-20T11:40:15;5.82;;;1.33;;
44764;SDS011;30484;52.382;5.260;2023-08-20T11:42:44;8.52;;;1.70;;
44764;SDS011;30484;52.382;5.260;2023-08-20T11:45:13;8.32;;;1.42;;
44764;SDS011;30484;52.382;5.260;2023-08-20T11:47:42;10.23;;;1.83;;
44764;SDS011;30484;52.382;5.260;2023-08-20T11:50:10;6.80;;;1.30;;
44764;SDS011;30484;52.382;5.260;2023-08-20T11:52:39;10.90;;;1.70;;
44764;SDS011;30484;52.382;5.260;2023-08-20T11:55:08;6.93;;;1.55;;
44764;SDS011;30484;52.382;5.260;2023-08-20T11:57:38;9.88;;;1.88;;
44764;SDS011;30484;52.382;5.260;2023-08-20T12:00:07;5.93;;;1.42;;
44764;SDS011;30484;52.382;5.260;2023-08-20T12:02:52;10.43;;;1.75;;
44764;SDS011;30484;52.382;5.260;2023-08-20T12:05:21;7.47;;;1.33;;
44764;SDS011;30484;52.382;5.260;2023-08-20T12:08:00;9.15;;;1.50;;
44764;SDS011;30484;52.382;5.260;2023-08-20T12:10:31;7.93;;;1.60;;
44764;SDS011;30484;52.382;5.260;2023-08-20T12:13:01;6.18;;;1.48;;
44764;SDS011;30484;52.382;5.260;2023-08-20T12:15:30;4.97;;;1.55;;
44764;SDS011;30484;52.382;5.260;2023-08-20T12:17:59;8.18;;;1.65;;
44764;SDS011;30484;52.382;5.260;2023-08-20T12:20:31;5.30;;;1.38;;
44764;SDS011;30484;52.382;5.260;2023-08-20T12:23:03;9.98;;;1.58;;
44764;SDS011;30484;52.382;5.260;2023-08-20T12:25:34;7.53;;;1.63;;
44764;SDS011;30484;52.382;5.260;2023-08-20T12:28:05;8.93;;;2.03;;
44764;SDS011;30484;52.382;5.260;2023-08-20T12:30:34;8.00;;;1.75;;
44764;SDS011;30484;52.382;5.260;2023-08-20T12:33:05;8.38;;;1.60;;
44764;SDS011;30484;52.382;5.260;2023-08-20T12:35:34;7.45;;;1.70;;
44764;SDS011;30484;52.382;5.260;2023-08-20T12:38:03;9.40;;;1.60;;
44764;SDS011;30484;52.382;5.260;2023-08-20T12:40:36;8.20;;;1.58;;
44764;SDS011;30484;52.382;5.260;2023-08-20T12:43:07;9.30;;;1.70;;
44764;SDS011;30484;52.382;5.260;2023-08-20T12:45:35;5.45;;;1.40;;
44764;SDS011;30484;52.382;5.260;2023-08-20T12:48:04;8.20;;;1.52;;
44764;SDS011;30484;52.382;5.260;2023-08-20T12:50:34;7.30;;;1.42;;
44764;SDS011;30484;52.382;5.260;2023-08-20T12:53:02;6.70;;;1.45;;
44764;SDS011;30484;52.382;5.260;2023-08-20T12:55:31;6.68;;;1.80;;
44764;SDS011;30484;52.382;5.260;2023-08-20T12:58:00;5.05;;;1.27;;
44764;SDS011;30484;52.382;5.260;2023-08-20T13:00:30;6.47;;;1.50;;
44764;SDS011;30484;52.382;5.260;2023-08-20T13:02:59;6.65;;;1.70;;
44764;SDS011;30484;52.382;5.260;2023-08-20T13:05:29;8.27;;;1.42;;
44764;SDS011;30484;52.382;5.260;2023-08-20T13:07:59;5.97;;;1.50;;
44764;SDS011;30484;52.382;5.260;2023-08-20T13:10:28;9.30;;;1.63;;
44764;SDS011;30484;52.382;5.260;2023-08-20T13:12:59;6.40;;;1.58;;
44764;SDS011;30484;52.382;5.260;2023-08-20T13:15:36;5.97;;;1.40;;
44764;SDS011;30484;52.382;5.260;2023-08-20T13:18:06;6.50;;;1.38;;
44764;SDS011;30484;52.382;5.260;2023-08-20T13:20:37;8.30;;;1.60;;
44764;SDS011;30484;52.382;5.260;2023-08-20T13:23:07;4.20;;;1.70;;
44764;SDS011;30484;52.382;5.260;2023-08-20T13:25:36;7.38;;;1.58;;
44764;SDS011;30484;52.382;5.260;2023-08-20T13:28:08;6.82;;;1.60;;
44764;SDS011;30484;52.382;5.260;2023-08-20T13:30:37;5.68;;;1.52;;
44764;SDS011;30484;52.382;5.260;2023-08-20T13:33:06;8.20;;;1.67;;
44764;SDS011;30484;52.382;5.260;2023-08-20T13:35:35;6.40;;;1.25;;
44764;SDS011;30484;52.382;5.260;2023-08-20T13:38:06;6.32;;;1.70;;
44764;SDS011;30484;52.382;5.260;2023-08-20T13:40:34;7.50;;;1.52;;
44764;SDS011;30484;52.382;5.260;2023-08-20T13:43:03;5.15;;;1.50;;
44764;SDS011;30484;52.382;5.260;2023-08-20T13:45:32;5.80;;;1.48;;
44764;SDS011;30484;52.382;5.260;2023-08-20T13:48:02;6.30;;;1.45;;
44764;SDS011;30484;52.382;5.260;2023-08-20T13:50:33;5.78;;;1.20;;
44764;SDS011;30484;52.382;5.260;2023-08-20T13:53:02;3.65;;;1.00;;
44764;SDS011;30484;52.382;5.260;2023-08-20T13:55:31;5.05;;;1.33;;
44764;SDS011;30484;52.382;5.260;2023-08-20T13:57:59;4.65;;;1.10;;
44764;SDS011;30484;52.382;5.260;2023-08-20T14:00:28;4.68;;;1.85;;
44764;SDS011;30484;52.382;5.260;2023-08-20T14:02:57;10.20;;;1.90;;
44764;SDS011;30484;52.382;5.260;2023-08-20T14:05:27;3.45;;;1.30;;
44764;SDS011;30484;52.382;5.260;2023-08-20T14:07:56;7.88;;;3.38;;
44764;SDS011;30484;52.382;5.260;2023-08-20T14:10:24;7.28;;;1.80;;
44764;SDS011;30484;52.382;5.260;2023-08-20T14:12:53;5.50;;;1.67;;
44764;SDS011;30484;52.382;5.260;2023-08-20T14:15:21;5.13;;;1.58;;
44764;SDS011;30484;52.382;5.260;2023-08-20T14:17:50;4.25;;;1.52;;
44764;SDS011;30484;52.382;5.260;2023-08-20T14:20:18;5.72;;;2.17;;
44764;SDS011;30484;52.382;5.260;2023-08-20T14:22:48;6.60;;;1.75;;
44764;SDS011;30484;52.382;5.260;2023-08-20T14:25:16;5.30;;;1.80;;
44764;SDS011;30484;52.382;5.260;2023-08-20T14:27:45;6.97;;;1.40;;
44764;SDS011;30484;52.382;5.260;2023-08-20T14:30:13;4.65;;;1.42;;
44764;SDS011;30484;52.382;5.260;2023-08-20T14:32:42;4.38;;;1.48;;
44764;SDS011;30484;52.382;5.260;2023-08-20T14:35:11;6.38;;;1.70;;
44764;SDS011;30484;52.382;5.260;2023-08-20T14:37:40;5.93;;;1.38;;
44764;SDS011;30484;52.382;5.260;2023-08-20T14:40:11;3.92;;;1.25;;
44764;SDS011;30484;52.382;5.260;2023-08-20T14:42:39;3.85;;;1.40;;
44764;SDS011;30484;52.382;5.260;2023-08-20T14:45:09;5.50;;;1.98;;
44764;SDS011;30484;52.382;5.260;2023-08-20T14:47:38;6.82;;;1.52;;
44764;SDS011;30484;52.382;5.260;2023-08-20T14:50:07;5.20;;;1.45;;
44764;SDS011;30484;52.382;5.260;2023-08-20T14:52:39;4.47;;;1.35;;
44764;SDS011;30484;52.382;5.260;2023-08-20T14:55:08;7.65;;;1.63;;